createdAt,value
2022-10-17T00:01:06.715Z,76.24
2022-10-17T00:03:36.478Z,76.56
2022-10-17T00:06:12.914Z,76.19
2022-10-17T00:08:41.802Z,75.97
2022-10-17T00:11:16.189Z,76.33
2022-10-17T00:13:43.718Z,76.41
2022-10-17T00:16:13.684Z,76.44
2022-10-17T00:18:41.418Z,76.22
2022-10-17T00:21:18.112Z,76.28
2022-10-17T00:23:46.709Z,76.43
2022-10-17T00:26:15.183Z,76.56
2022-10-17T00:28:42.823Z,76.55
2022-10-17T00:31:11.099Z,76.92
2022-10-17T00:33:39.607Z,76.23
2022-10-17T00:36:10.333Z,76.33
2022-10-17T00:38:37.791Z,76.28
2022-10-17T00:41:06.137Z,76.21
2022-10-17T00:43:57.935Z,76.31
2022-10-17T00:46:29.615Z,76.87
2022-10-17T00:48:58.980Z,76.64
2022-10-17T00:51:50.284Z,76.77
2022-10-17T00:54:21.787Z,76.35
2022-10-17T00:56:53.484Z,76.63
2022-10-17T00:59:23.328Z,76.15
2022-10-17T01:02:06.468Z,76.70
2022-10-17T01:04:34.148Z,76.13
2022-10-17T01:07:03.376Z,76.51
2022-10-17T01:09:31.869Z,76.34
2022-10-17T01:12:31.929Z,75.88
2022-10-17T01:15:18.082Z,76.01
2022-10-17T01:18:07.494Z,76.24
2022-10-17T01:20:49.877Z,76.60
2022-10-17T01:23:42.217Z,76.53
2022-10-17T01:26:36.445Z,76.60
2022-10-17T01:29:31.262Z,76.19
2022-10-17T01:32:14.719Z,76.14
2022-10-17T01:35:26.422Z,75.67
2022-10-17T01:38:33.816Z,76.06
2022-10-17T01:41:15.535Z,75.77
2022-10-17T01:44:07.866Z,75.78
2022-10-17T01:46:49.418Z,75.95
2022-10-17T01:49:29.883Z,75.82
2022-10-17T01:52:35.330Z,76.09
2022-10-17T01:55:23.120Z,76.37
2022-10-17T01:58:03.995Z,75.99
2022-10-17T02:00:34.604Z,75.83
2022-10-17T02:03:07.601Z,75.51
2022-10-17T02:05:44.278Z,75.79
2022-10-17T02:08:13.257Z,75.66
2022-10-17T02:11:08.169Z,75.61
2022-10-17T02:14:02.302Z,75.34
2022-10-17T02:16:36.471Z,75.45
2022-10-17T02:19:16.935Z,75.25
2022-10-17T02:22:05.885Z,75.53
2022-10-17T02:24:34.018Z,75.52
2022-10-17T02:30:26.608Z,74.82
2022-10-17T02:33:43.015Z,75.26
2022-10-17T02:36:28.103Z,75.39
2022-10-17T02:39:08.088Z,75.25
2022-10-17T02:41:49.560Z,74.99
2022-10-17T02:44:47.971Z,74.78
2022-10-17T02:47:39.583Z,74.89
2022-10-17T02:50:08.339Z,74.34
2022-10-17T02:52:47.177Z,74.41
2022-10-17T02:55:20.864Z,73.96
2022-10-17T02:57:55.189Z,73.92
2022-10-17T03:00:24.361Z,73.58
2022-10-17T03:02:54.204Z,73.53
2022-10-17T03:05:43.213Z,74.10
2022-10-17T03:08:12.575Z,73.53
2022-10-17T03:10:40.223Z,73.25
2022-10-17T03:13:14.351Z,73.35
2022-10-17T03:15:43.631Z,72.41
2022-10-17T03:18:13.253Z,72.58
2022-10-17T03:20:40.827Z,72.44
2022-10-17T03:23:09.584Z,72.93
2022-10-17T03:25:38.552Z,72.48
2022-10-17T03:28:06.172Z,72.48
2022-10-17T03:30:34.237Z,72.61
2022-10-17T03:33:01.565Z,73.17
2022-10-17T03:36:06.211Z,72.87
2022-10-17T03:38:35.513Z,72.88
2022-10-17T03:41:04.925Z,72.95
2022-10-17T03:43:38.220Z,73.02
2022-10-17T03:46:07.677Z,72.58
2022-10-17T03:48:36.699Z,72.71
2022-10-17T03:51:12.451Z,72.60
2022-10-17T03:53:47.661Z,72.88
2022-10-17T03:56:22.304Z,73.06
2022-10-17T03:58:57.656Z,72.76
2022-10-17T04:01:25.675Z,73.27
2022-10-17T04:03:55.770Z,73.50
2022-10-17T04:06:26.253Z,74.05
2022-10-17T04:08:55.178Z,73.93
2022-10-17T04:11:28.315Z,73.69
2022-10-17T04:14:00.333Z,74.06
2022-10-17T04:16:29.671Z,73.61
2022-10-17T04:19:02.028Z,73.69
2022-10-17T04:21:36.700Z,73.39
2022-10-17T04:24:07.446Z,72.99
2022-10-17T04:26:53.345Z,72.92
2022-10-17T04:29:23.202Z,73.00
2022-10-17T04:31:53.458Z,73.16
2022-10-17T04:34:37.412Z,73.11
2022-10-17T04:37:07.112Z,72.90
2022-10-17T04:39:35.643Z,72.82
2022-10-17T04:42:03.507Z,72.56
2022-10-17T04:44:31.721Z,72.42
2022-10-17T04:47:01.588Z,72.90
2022-10-17T04:49:29.121Z,73.02
2022-10-17T04:52:03.474Z,72.90
2022-10-17T04:54:57.246Z,72.80
2022-10-17T04:57:25.456Z,72.75
2022-10-17T05:00:00.767Z,73.04
2022-10-17T05:02:46.780Z,72.92
2022-10-17T05:05:15.434Z,72.82
2022-10-17T05:07:54.621Z,72.77
2022-10-17T05:10:26.022Z,72.82
2022-10-17T05:12:54.558Z,72.78
2022-10-17T05:15:24.573Z,73.12
2022-10-17T05:17:58.173Z,73.24
2022-10-17T05:20:28.256Z,73.01
2022-10-17T05:22:56.671Z,73.38
2022-10-17T05:25:24.849Z,73.18
2022-10-17T05:27:52.263Z,73.50
2022-10-17T05:30:19.726Z,73.26
2022-10-17T05:32:53.224Z,73.41
2022-10-17T05:35:21.336Z,73.06
2022-10-17T05:37:49.133Z,73.23
2022-10-17T05:40:24.143Z,72.89
2022-10-17T05:42:53.954Z,72.72
2022-10-17T05:45:22.509Z,72.68
2022-10-17T05:47:50.361Z,72.38
2022-10-17T05:50:21.990Z,72.69
2022-10-17T05:53:02.454Z,72.21
2022-10-17T05:55:30.592Z,72.29
2022-10-17T05:58:01.124Z,72.33
2022-10-17T06:00:34.449Z,72.30
2022-10-17T06:03:02.852Z,72.34
2022-10-17T06:05:30.800Z,72.58
2022-10-17T06:08:01.833Z,72.30
2022-10-17T06:10:34.273Z,75.52
2022-10-17T06:13:02.051Z,73.78
2022-10-17T06:15:29.947Z,76.96
2022-10-17T06:18:09.085Z,76.66
2022-10-17T06:20:36.729Z,73.06
2022-10-17T06:23:04.296Z,74.51
2022-10-17T06:25:59.616Z,72.63
2022-10-17T06:28:27.848Z,73.06
2022-10-17T06:30:55.961Z,73.65
2022-10-17T06:33:24.830Z,72.33
2022-10-17T06:35:55.305Z,72.10
2022-10-17T06:38:24.941Z,73.22
2022-10-17T06:40:57.680Z,71.35
2022-10-17T06:43:27.773Z,71.98
2022-10-17T06:46:21.399Z,71.85
2022-10-17T06:48:59.759Z,72.81
2022-10-17T06:51:38.369Z,72.13
2022-10-17T06:54:10.446Z,73.28
2022-10-17T06:56:50.146Z,71.61
2022-10-17T06:59:39.668Z,71.37
2022-10-17T07:02:25.649Z,71.92
2022-10-17T07:04:54.645Z,72.08
2022-10-17T07:07:23.049Z,72.30
2022-10-17T07:09:52.094Z,73.53
2022-10-17T07:12:20.694Z,72.26
2022-10-17T07:14:50.674Z,71.55
2022-10-17T07:17:19.363Z,71.88
2022-10-17T07:19:47.657Z,72.17
2022-10-17T07:22:15.229Z,71.74
2022-10-17T07:24:46.951Z,71.54
2022-10-17T07:27:53.644Z,71.56
2022-10-17T07:30:23.469Z,71.27
2022-10-17T07:33:00.060Z,71.46
2022-10-17T07:35:28.026Z,71.50
2022-10-17T07:37:57.707Z,70.82
2022-10-17T07:40:25.628Z,71.23
2022-10-17T07:42:53.585Z,71.08
2022-10-17T07:45:21.386Z,71.15
2022-10-17T07:47:48.984Z,71.38
2022-10-17T07:50:17.877Z,71.53
2022-10-17T07:52:45.335Z,71.32
2022-10-17T07:55:16.046Z,71.61
2022-10-17T07:57:43.733Z,71.42
2022-10-17T08:00:13.331Z,71.00
2022-10-17T08:02:41.855Z,70.98
2022-10-17T08:05:09.470Z,70.77
2022-10-17T08:07:36.912Z,70.46
2022-10-17T08:10:04.806Z,70.85
2022-10-17T08:12:36.042Z,70.56
2022-10-17T08:15:05.853Z,70.11
2022-10-17T08:17:36.512Z,70.12
2022-10-17T08:20:05.651Z,69.67
2022-10-17T08:22:34.202Z,69.88
2022-10-17T08:25:01.789Z,69.87
2022-10-17T08:27:29.383Z,69.81
2022-10-17T08:29:57.621Z,69.76
2022-10-17T08:32:27.733Z,69.64
2022-10-17T08:34:57.088Z,69.44
2022-10-17T08:37:24.514Z,69.26
2022-10-17T08:39:51.896Z,69.74
2022-10-17T08:42:51.266Z,69.89
2022-10-17T08:45:42.137Z,69.82
2022-10-17T08:48:15.190Z,69.99
2022-10-17T08:50:59.592Z,69.76
2022-10-17T08:53:59.006Z,69.83
2022-10-17T08:56:44.459Z,69.66
2022-10-17T08:59:23.830Z,69.60
2022-10-17T09:02:03.514Z,69.44
2022-10-17T09:05:02.168Z,69.72
2022-10-17T09:07:46.577Z,70.23
2022-10-17T09:10:44.154Z,70.24
2022-10-17T09:13:42.366Z,70.05
2022-10-17T09:16:19.333Z,70.32
2022-10-17T09:19:05.018Z,70.44
2022-10-17T09:21:57.793Z,70.65
2022-10-17T09:24:48.491Z,71.02
2022-10-17T09:27:43.126Z,70.58
2022-10-17T09:30:40.530Z,72.54
2022-10-17T09:33:35.280Z,74.30
2022-10-17T09:36:23.708Z,77.35
2022-10-17T09:38:58.540Z,76.56
2022-10-17T09:41:46.797Z,78.77
2022-10-17T09:44:25.273Z,77.83
2022-10-17T09:47:06.030Z,77.92
2022-10-17T09:49:36.668Z,78.23
2022-10-17T09:52:06.173Z,77.66
2022-10-17T09:54:53.204Z,76.89
2022-10-17T09:57:22.601Z,77.35
2022-10-17T10:00:06.106Z,77.42
2022-10-17T10:02:41.129Z,77.17
2022-10-17T10:05:22.048Z,76.69
2022-10-17T10:08:04.206Z,77.20
2022-10-17T10:10:32.733Z,76.61
2022-10-17T10:13:14.360Z,76.55
2022-10-17T10:15:50.489Z,76.57
2022-10-17T10:18:27.113Z,75.70
2022-10-17T10:21:17.142Z,76.14
2022-10-17T10:23:46.730Z,76.35
2022-10-17T10:26:24.782Z,75.96
2022-10-17T10:29:05.957Z,75.68
2022-10-17T10:31:38.879Z,75.70
2022-10-17T10:34:26.658Z,74.95
2022-10-17T10:36:59.744Z,74.78
2022-10-17T10:40:05.958Z,75.17
2022-10-17T10:42:38.240Z,75.90
2022-10-17T10:45:29.249Z,75.29
2022-10-17T10:48:25.546Z,75.29
2022-10-17T10:51:01.803Z,75.61
2022-10-17T10:53:39.451Z,74.81
2022-10-17T10:56:21.250Z,74.03
2022-10-17T10:59:21.154Z,74.50
2022-10-17T11:02:00.432Z,74.64
2022-10-17T11:04:52.491Z,74.83
2022-10-17T11:07:25.320Z,74.83
2022-10-17T11:09:55.678Z,73.96
2022-10-17T11:12:35.651Z,74.45
2022-10-17T11:15:44.251Z,73.71
2022-10-17T11:18:23.270Z,73.74
2022-10-17T11:21:04.229Z,73.52
2022-10-17T11:23:48.411Z,73.46
2022-10-17T11:26:39.253Z,73.76
2022-10-17T11:29:13.494Z,73.20
2022-10-17T11:31:47.632Z,73.64
2022-10-17T11:34:33.601Z,73.21
2022-10-17T11:37:13.305Z,73.24
2022-10-17T11:39:58.707Z,72.89
2022-10-17T11:42:42.010Z,73.56
2022-10-17T11:45:25.852Z,72.64
2022-10-17T11:48:00.529Z,72.89
2022-10-17T11:53:26.659Z,72.73
2022-10-17T11:55:58.754Z,73.23
2022-10-17T11:58:42.494Z,72.63
2022-10-17T12:01:23.983Z,72.23
2022-10-17T12:04:14.413Z,71.81
2022-10-17T12:07:06.862Z,71.81
2022-10-17T12:10:02.037Z,72.23
2022-10-17T12:12:33.781Z,72.07
2022-10-17T12:15:13.545Z,72.03
2022-10-17T12:17:47.268Z,72.76
2022-10-17T12:20:21.555Z,73.33
2022-10-17T12:22:51.982Z,72.92
2022-10-17T12:25:33.836Z,72.71
2022-10-17T12:28:07.090Z,73.83
2022-10-17T12:30:35.326Z,73.93
2022-10-17T12:33:17.790Z,73.99
2022-10-17T12:35:45.672Z,73.82
2022-10-17T12:38:23.028Z,73.71
2022-10-17T12:40:52.868Z,74.01
2022-10-17T12:43:29.499Z,73.43
2022-10-17T12:45:58.334Z,73.55
2022-10-17T12:48:35.102Z,74.08
2022-10-17T12:51:31.125Z,74.05
2022-10-17T12:54:15.480Z,73.97
2022-10-17T12:56:46.108Z,74.25
2022-10-17T12:59:29.810Z,74.49
2022-10-17T13:02:02.020Z,74.63
2022-10-17T13:04:32.020Z,74.89
2022-10-17T13:07:01.580Z,74.67
2022-10-17T13:09:44.148Z,74.55
2022-10-17T13:12:26.772Z,74.24
2022-10-17T13:14:55.456Z,75.15
2022-10-17T13:17:29.588Z,75.30
2022-10-17T13:19:58.232Z,75.01
2022-10-17T13:22:32.687Z,75.67
2022-10-17T13:25:16.264Z,75.45
2022-10-17T13:27:48.452Z,75.63
2022-10-17T13:30:30.910Z,75.24
2022-10-17T13:33:02.358Z,76.25
2022-10-17T13:35:58.867Z,76.63
2022-10-17T13:38:28.886Z,76.53
2022-10-17T13:41:02.038Z,76.98
2022-10-17T13:43:41.999Z,77.11
2022-10-17T13:46:36.744Z,77.15
2022-10-17T13:49:30.372Z,77.13
2022-10-17T13:51:59.539Z,77.29
2022-10-17T13:54:37.251Z,76.99
2022-10-17T13:57:06.376Z,77.27
2022-10-17T13:59:41.257Z,77.49
2022-10-17T14:02:17.557Z,77.05
2022-10-17T14:05:15.296Z,77.20
2022-10-17T14:08:09.312Z,76.89
2022-10-17T14:10:39.745Z,76.56
2022-10-17T14:13:30.685Z,76.90
2022-10-17T14:16:04.539Z,76.58
2022-10-17T14:18:36.691Z,75.93
2022-10-17T14:24:13.441Z,75.38
2022-10-17T14:26:52.780Z,75.13
2022-10-17T14:29:28.953Z,75.51
2022-10-17T14:32:15.570Z,75.64
2022-10-17T14:34:43.549Z,75.46
2022-10-17T14:37:21.119Z,75.74
2022-10-17T14:39:52.180Z,75.94
2022-10-17T14:42:21.971Z,76.48
2022-10-17T14:44:51.404Z,76.36
2022-10-17T14:47:42.121Z,76.30
2022-10-17T14:50:12.920Z,76.26
2022-10-17T14:52:41.139Z,76.26
2022-10-17T14:55:24.402Z,76.25
2022-10-17T14:57:51.836Z,75.49
2022-10-17T15:00:21.778Z,75.71
2022-10-17T15:02:54.633Z,75.67
2022-10-17T15:05:23.668Z,75.32
2022-10-17T15:07:51.640Z,75.49
2022-10-17T15:10:28.608Z,75.38
2022-10-17T15:12:59.167Z,75.15
2022-10-17T15:15:33.421Z,75.03
2022-10-17T15:18:01.025Z,74.78
2022-10-17T15:20:30.732Z,75.29
2022-10-17T15:23:00.537Z,75.46
2022-10-17T15:25:29.541Z,75.78
2022-10-17T15:27:57.545Z,76.21
2022-10-17T15:30:28.677Z,76.78
2022-10-17T15:32:56.527Z,77.12
2022-10-17T15:35:23.950Z,77.44
2022-10-17T15:37:51.498Z,77.20
2022-10-17T15:40:30.143Z,77.69
2022-10-17T15:42:57.549Z,77.26
2022-10-17T15:45:25.339Z,77.81
2022-10-17T15:48:00.788Z,78.48
2022-10-17T15:50:30.794Z,78.36
2022-10-17T15:52:58.598Z,78.09
2022-10-17T15:55:26.346Z,78.19
2022-10-17T15:57:53.686Z,78.19
2022-10-17T16:00:24.492Z,78.84
2022-10-17T16:02:53.020Z,78.31
2022-10-17T16:05:26.490Z,78.91
2022-10-17T16:07:54.782Z,78.50
2022-10-17T16:10:23.574Z,78.58
2022-10-17T16:12:50.868Z,78.67
2022-10-17T16:15:28.327Z,78.93
2022-10-17T16:18:00.460Z,78.90
2022-10-17T16:20:30.264Z,78.95
2022-10-17T16:23:00.909Z,79.23
2022-10-17T16:25:30.231Z,79.27
2022-10-17T16:27:59.570Z,79.36
2022-10-17T16:30:29.712Z,79.61
2022-10-17T16:32:57.668Z,79.75
2022-10-17T16:35:31.863Z,79.81
2022-10-17T16:38:02.626Z,80.05
2022-10-17T16:40:30.394Z,80.24
2022-10-17T16:43:00.757Z,80.49
2022-10-17T16:45:28.378Z,79.69
2022-10-17T16:47:55.954Z,80.66
2022-10-17T16:50:25.057Z,80.64
2022-10-17T16:52:52.578Z,80.93
2022-10-17T16:55:19.954Z,80.62
2022-10-17T16:57:49.334Z,80.27
2022-10-17T17:00:17.962Z,80.23
2022-10-17T17:02:48.685Z,80.40
2022-10-17T17:05:16.451Z,80.65
2022-10-17T17:07:44.236Z,80.52
2022-10-17T17:10:11.652Z,80.63
2022-10-17T17:12:38.934Z,80.99
2022-10-17T17:15:06.555Z,80.96
2022-10-17T17:17:50.319Z,81.20
2022-10-17T17:20:19.987Z,81.02
2022-10-17T17:22:47.346Z,81.63
2022-10-17T17:25:14.922Z,80.90
2022-10-17T17:27:42.165Z,81.02
2022-10-17T17:30:10.474Z,80.91
2022-10-17T17:32:43.268Z,81.36
2022-10-17T17:35:10.784Z,81.07
2022-10-17T17:37:38.757Z,81.78
2022-10-17T17:40:06.975Z,81.66
2022-10-17T17:42:34.413Z,81.55
2022-10-17T17:45:02.021Z,81.12
2022-10-17T17:47:30.161Z,81.40
2022-10-17T17:49:57.785Z,81.10
2022-10-17T17:52:25.163Z,81.25
2022-10-17T17:54:52.583Z,81.22
2022-10-17T17:57:20.075Z,81.31
2022-10-17T17:59:50.233Z,81.22
2022-10-17T18:02:17.671Z,81.46
2022-10-17T18:04:45.075Z,81.92
2022-10-17T18:07:14.171Z,81.89
2022-10-17T18:09:42.240Z,81.82
2022-10-17T18:12:17.704Z,82.19
2022-10-17T18:14:49.243Z,81.91
2022-10-17T18:17:24.683Z,82.10
2022-10-17T18:20:02.492Z,82.41
2022-10-17T18:22:30.816Z,81.91
2022-10-17T18:25:03.263Z,82.03
2022-10-17T18:27:33.052Z,82.12
2022-10-17T18:30:00.316Z,81.88
2022-10-17T18:35:45.677Z,82.18
2022-10-17T18:38:13.883Z,82.58
2022-10-17T18:40:41.281Z,82.42
2022-10-17T18:43:08.630Z,82.10
2022-10-17T18:45:47.973Z,82.74
2022-10-17T18:48:15.467Z,82.27
2022-10-17T18:50:43.803Z,81.80
2022-10-17T18:53:11.052Z,82.16
2022-10-17T18:55:40.297Z,82.10
2022-10-17T18:58:07.575Z,81.95
2022-10-17T19:00:34.869Z,81.93
2022-10-17T19:03:05.392Z,81.85
2022-10-17T19:05:34.277Z,81.86
2022-10-17T19:08:01.494Z,82.56
2022-10-17T19:10:28.840Z,82.36
2022-10-17T19:12:56.268Z,82.55
2022-10-17T19:15:25.948Z,82.91
2022-10-17T19:17:58.607Z,82.75
2022-10-17T19:20:26.177Z,82.57
2022-10-17T19:22:54.590Z,82.74
2022-10-17T19:25:22.810Z,82.76
2022-10-17T19:27:50.078Z,82.97
2022-10-17T19:30:19.598Z,82.82
2022-10-17T19:32:48.667Z,82.62
2022-10-17T19:35:16.442Z,83.02
2022-10-17T19:37:51.921Z,82.94
2022-10-17T19:40:19.279Z,82.86
2022-10-17T19:42:46.497Z,82.80
2022-10-17T19:45:13.946Z,82.50
2022-10-17T19:47:41.139Z,82.67
2022-10-17T19:50:08.781Z,82.21
2022-10-17T19:52:36.433Z,81.80
2022-10-17T19:55:03.874Z,82.16
2022-10-17T19:57:31.676Z,82.07
2022-10-17T19:59:59.556Z,82.03
2022-10-17T20:02:27.297Z,82.11
2022-10-17T20:05:17.093Z,81.77
2022-10-17T20:07:45.502Z,81.79
2022-10-17T20:10:12.921Z,82.06
2022-10-17T20:12:40.018Z,82.39
2022-10-17T20:15:08.776Z,81.84
2022-10-17T20:17:36.526Z,81.96
2022-10-17T20:20:08.731Z,81.83
2022-10-17T20:22:47.376Z,81.87
2022-10-17T20:25:18.578Z,81.87
2022-10-17T20:27:46.444Z,81.77
2022-10-17T20:30:19.292Z,82.40
2022-10-17T20:32:48.952Z,81.90
2022-10-17T20:35:16.297Z,82.26
2022-10-17T20:37:43.388Z,81.88
2022-10-17T20:40:34.195Z,81.45
2022-10-17T20:43:01.260Z,81.62
2022-10-17T20:45:43.611Z,81.38
2022-10-17T20:48:16.695Z,81.43
2022-10-17T20:50:45.169Z,81.77
2022-10-17T20:56:09.272Z,81.71
2022-10-17T20:58:36.596Z,81.42
2022-10-17T21:01:09.217Z,81.51
2022-10-17T21:03:41.015Z,81.22
2022-10-17T21:06:15.855Z,81.23
2022-10-17T21:08:43.595Z,81.25
2022-10-17T21:11:19.605Z,81.04
2022-10-17T21:13:48.294Z,80.66
2022-10-17T21:16:22.922Z,81.08
2022-10-17T21:18:55.066Z,81.14
2022-10-17T21:21:30.751Z,80.92
2022-10-17T21:24:01.560Z,80.83
2022-10-17T21:26:29.845Z,80.74
2022-10-17T21:28:59.602Z,80.86
2022-10-17T21:31:28.665Z,81.11
2022-10-17T21:34:04.979Z,81.38
2022-10-17T21:36:32.335Z,81.18
2022-10-17T21:38:59.606Z,81.47
2022-10-17T21:41:29.180Z,81.02
2022-10-17T21:44:07.697Z,81.21
2022-10-17T21:46:35.105Z,81.64
2022-10-17T21:49:03.122Z,81.72
2022-10-17T21:51:30.572Z,81.76
2022-10-17T21:53:58.505Z,81.87
2022-10-17T21:56:30.042Z,82.43
2022-10-17T21:58:58.778Z,82.45
2022-10-17T22:01:31.652Z,82.08
2022-10-17T22:04:03.173Z,81.33
2022-10-17T22:06:41.171Z,81.05
2022-10-17T22:09:14.331Z,80.88
2022-10-17T22:11:42.407Z,80.69
2022-10-17T22:14:15.018Z,80.78
2022-10-17T22:16:44.490Z,80.62
2022-10-17T22:19:13.697Z,80.43
2022-10-17T22:21:41.192Z,80.35
2022-10-17T22:24:12.556Z,80.36
2022-10-17T22:26:43.349Z,80.41
2022-10-17T22:29:11.131Z,80.20
2022-10-17T22:31:39.453Z,80.22
2022-10-17T22:34:07.820Z,79.84
2022-10-17T22:36:36.331Z,80.15
2022-10-17T22:39:04.908Z,80.23
2022-10-17T22:41:32.329Z,80.08
2022-10-17T22:44:00.862Z,79.96
2022-10-17T22:46:28.594Z,80.01
2022-10-17T22:48:58.930Z,79.92
2022-10-17T22:51:27.333Z,79.49
2022-10-17T22:53:54.524Z,79.60
2022-10-17T22:56:24.558Z,79.62
2022-10-17T22:58:52.817Z,79.49
2022-10-17T23:01:29.426Z,79.68
2022-10-17T23:03:59.284Z,79.46
2022-10-17T23:06:27.069Z,79.31
2022-10-17T23:08:54.209Z,79.58
2022-10-17T23:11:22.033Z,79.57
2022-10-17T23:13:57.479Z,79.25
2022-10-17T23:16:24.877Z,79.71
2022-10-17T23:18:55.502Z,79.52
2022-10-17T23:21:22.983Z,79.67
2022-10-17T23:23:51.242Z,79.58
2022-10-17T23:26:18.594Z,79.73
2022-10-17T23:28:45.837Z,79.83
2022-10-17T23:31:18.923Z,79.75
2022-10-17T23:33:48.435Z,80.02
2022-10-17T23:36:19.253Z,80.15
2022-10-17T23:38:48.109Z,80.60
2022-10-17T23:41:15.511Z,80.68
2022-10-17T23:43:43.956Z,80.76
2022-10-17T23:46:11.618Z,81.20
2022-10-17T23:48:39.684Z,80.58
2022-10-17T23:51:08.936Z,80.61
2022-10-17T23:53:40.076Z,80.71
2022-10-17T23:56:11.938Z,80.53
2022-10-17T23:58:39.583Z,80.45
